createdAt,value
2018-09-29T00:00:48.025Z,99873.66
2018-09-29T00:03:14.961Z,99878.50
2018-09-29T00:05:41.485Z,99877.12
2018-09-29T00:08:08.406Z,99872.39
2018-09-29T00:10:34.929Z,99866.61
2018-09-29T00:13:01.933Z,99861.73
2018-09-29T00:15:28.412Z,99856.97
2018-09-29T00:17:55.626Z,99859.19
2018-09-29T00:20:22.612Z,99858.34
2018-09-29T00:22:49.501Z,99858.05
2018-09-29T00:25:16.004Z,99857.31
2018-09-29T00:27:42.489Z,99855.69
2018-09-29T00:30:09.407Z,99867.70
2018-09-29T00:32:35.913Z,99867.02
2018-09-29T00:35:02.381Z,99871.01
2018-09-29T00:37:32.441Z,99867.13
2018-09-29T00:39:59.404Z,99863.63
2018-09-29T00:42:25.913Z,99864.94
2018-09-29T00:44:52.384Z,99869.28
2018-09-29T00:47:18.878Z,99872.78
2018-09-29T00:49:45.769Z,99870.14
2018-09-29T00:52:12.261Z,99874.54
2018-09-29T01:33:34.995Z,99858.70
2018-09-29T01:36:01.698Z,99858.25
2018-09-29T01:38:29.376Z,99856.11
2018-09-29T01:40:56.231Z,99851.37
2018-09-29T01:43:22.704Z,99847.48
2018-09-29T01:45:49.202Z,99850.09
2018-09-29T01:48:15.713Z,99855.52
2018-09-29T01:50:42.469Z,99845.41
2018-09-29T01:53:08.962Z,99843.64
2018-09-29T01:55:35.435Z,99841.90
2018-09-29T01:58:01.930Z,99841.55
2018-09-29T02:00:28.793Z,99840.78
2018-09-29T02:02:55.277Z,99839.50
2018-09-29T02:05:21.756Z,99841.69
2018-09-29T03:03:33.524Z,99837.19
2018-09-29T03:06:00.148Z,99840.39
2018-09-29T03:08:26.638Z,99832.68
2018-09-29T03:10:53.121Z,99832.32
2018-09-29T03:13:20.054Z,99829.20
2018-09-29T04:00:00.487Z,99817.42
2018-09-29T04:02:26.993Z,99826.13
2018-09-29T04:25:41.658Z,99832.50
2018-09-29T04:28:08.314Z,99833.34
2018-09-29T04:30:34.949Z,99839.06
2018-09-29T04:33:01.704Z,99840.87
2018-09-29T04:35:28.210Z,99837.42
2018-09-29T04:37:54.682Z,99843.09
2018-09-29T04:40:21.156Z,99846.55
2018-09-29T04:42:47.918Z,99846.12
2018-09-29T04:45:14.425Z,99844.39
2018-09-29T04:47:40.927Z,99846.13
2018-09-29T05:05:42.499Z,99856.55
2018-09-29T05:47:51.914Z,99862.52
2018-09-29T05:50:18.582Z,99859.02
2018-09-29T05:52:46.458Z,99862.91
2018-09-29T05:55:13.087Z,99867.70
2018-09-29T06:06:01.353Z,99855.98
2018-09-29T06:08:29.061Z,99863.45
2018-09-29T06:10:55.866Z,99865.23
2018-09-29T06:13:28.075Z,99863.06
2018-09-29T06:15:54.667Z,99860.88
2018-09-29T06:18:22.125Z,99868.28
2018-09-29T06:20:49.672Z,99873.50
2018-09-29T06:27:00.388Z,99882.59
2018-09-29T06:32:11.896Z,99886.94
2018-09-29T06:34:39.155Z,99898.23
2018-09-29T06:38:54.523Z,99884.77
2018-09-29T07:08:12.322Z,99867.16
2018-09-29T07:10:38.951Z,99861.83
2018-09-29T07:13:05.794Z,99860.83
2018-09-29T07:15:33.233Z,99857.70
2018-09-29T07:17:59.757Z,99867.27
2018-09-29T07:20:26.725Z,99856.80
2018-09-29T07:22:54.163Z,99859.71
2018-09-29T07:25:20.729Z,99863.83
2018-09-29T08:09:06.154Z,99863.95
2018-09-29T08:11:32.797Z,99868.05
2018-09-29T08:13:59.674Z,99873.02
2018-09-29T08:17:35.973Z,99884.52
2018-09-29T08:20:06.570Z,99873.65
2018-09-29T08:22:33.892Z,99878.22
2018-09-29T08:25:00.373Z,99866.94
2018-09-29T08:27:28.886Z,99871.52
2018-09-29T08:29:55.479Z,99874.40
2018-09-29T08:34:56.074Z,99864.29
2018-09-29T08:37:22.648Z,99862.80
2018-09-29T08:42:24.596Z,99859.42
2018-09-29T08:44:52.246Z,99869.44
2018-09-29T08:47:18.885Z,99867.42
2018-09-29T08:49:46.757Z,99860.80
2018-09-29T08:56:14.261Z,99853.27
2018-09-29T09:03:24.692Z,99842.96
2018-09-29T10:20:28.292Z,99768.37
2018-09-29T11:20:25.210Z,99697.48
2018-09-29T11:22:53.202Z,99701.94
2018-09-29T12:17:39.045Z,99590.02
2018-09-29T13:44:08.335Z,99478.20
2018-09-29T13:46:35.002Z,99477.18
2018-09-29T13:53:45.386Z,99464.03
2018-09-29T13:56:12.404Z,99460.54
2018-09-29T13:58:39.969Z,99465.41
2018-09-29T14:01:06.590Z,99455.61
2018-09-29T15:53:43.224Z,99310.98
2018-09-29T16:17:42.813Z,99293.98
2018-09-29T17:00:59.166Z,99282.28
2018-09-29T17:08:31.775Z,99290.63
2018-09-29T17:33:41.434Z,99289.92
2018-09-29T18:07:54.500Z,99270.78
2018-09-29T18:10:21.732Z,99263.11
2018-09-29T18:39:44.608Z,99275.27
2018-09-29T18:42:12.858Z,99262.42
2018-09-29T18:44:39.564Z,99257.36
2018-09-29T18:47:06.517Z,99259.58
2018-09-29T18:49:32.988Z,99259.13
2018-09-29T18:51:59.647Z,99258.22
2018-09-29T18:54:27.462Z,99257.91
2018-09-29T18:56:54.813Z,99250.81
2018-09-29T18:59:21.435Z,99242.67
2018-09-29T19:01:48.252Z,99238.86
2018-09-29T19:04:14.741Z,99237.99
2018-09-29T19:06:41.266Z,99235.78
2018-09-29T19:09:09.195Z,99236.23
2018-09-29T19:11:36.469Z,99240.42
2018-09-29T19:14:03.725Z,99246.72
2018-09-29T19:16:30.561Z,99245.50
2018-09-29T19:18:57.032Z,99247.09
2018-09-29T19:27:04.634Z,99252.30
2018-09-29T19:29:31.413Z,99254.89
2018-09-29T19:44:23.929Z,99267.56
2018-09-29T19:46:50.849Z,99264.23
2018-09-29T19:49:23.298Z,99259.91
2018-09-29T19:51:50.803Z,99252.42
2018-09-29T19:54:19.196Z,99249.80
2018-09-29T19:56:46.463Z,99256.89
2018-09-29T19:59:13.765Z,99256.53
2018-09-29T20:01:45.656Z,99255.67
2018-09-29T20:20:09.369Z,99245.55
2018-09-29T20:22:36.041Z,99245.27
2018-09-29T20:35:32.599Z,99227.25
2018-09-29T20:47:48.548Z,99212.47
2018-09-29T21:03:11.729Z,99190.70
2018-09-29T21:05:39.102Z,99187.73
2018-09-29T21:08:06.243Z,99186.75
2018-09-29T21:10:33.037Z,99185.84
2018-09-29T21:13:02.731Z,99180.09
2018-09-29T21:17:35.301Z,99180.53
2018-09-29T21:26:05.176Z,99168.69
2018-09-29T21:28:31.800Z,99166.38
2018-09-29T21:30:58.809Z,99167.31
2018-09-29T21:47:06.333Z,99147.52
2018-09-29T21:49:34.536Z,99138.19
2018-09-29T21:52:02.818Z,99137.33
2018-09-29T21:54:29.872Z,99138.15
2018-09-29T21:56:58.505Z,99135.00
2018-09-29T21:59:26.477Z,99136.83
2018-09-29T22:01:53.119Z,99145.50
2018-09-29T22:04:21.004Z,99145.45
2018-09-29T22:06:48.183Z,99140.14
2018-09-29T22:09:14.816Z,99130.73
2018-09-29T22:11:42.823Z,99127.27
2018-09-29T22:14:10.815Z,99123.32
2018-09-29T22:16:37.780Z,99115.66
2018-09-29T22:19:04.812Z,99114.53
2018-09-29T22:21:32.664Z,99110.34
2018-09-29T22:23:59.346Z,99110.47
2018-09-29T22:26:26.812Z,99108.91
2018-09-29T22:28:55.877Z,99109.89
2018-09-29T22:31:22.441Z,99109.26
2018-09-29T22:33:49.953Z,99103.70
2018-09-29T22:36:17.740Z,99105.49
2018-09-29T22:38:46.182Z,99104.99
2018-09-29T22:45:07.165Z,99094.77
2018-09-29T22:47:33.859Z,99093.52
2018-09-29T22:52:32.256Z,99092.74
2018-09-29T22:54:58.891Z,99094.36
2018-09-29T22:57:25.408Z,99086.43
2018-09-29T22:59:52.240Z,99090.38
2018-09-29T23:02:18.709Z,99084.84
2018-09-29T23:04:45.236Z,99088.34
2018-09-29T23:07:12.174Z,99092.10
2018-09-29T23:09:38.656Z,99092.11
2018-09-29T23:12:05.150Z,99090.42
2018-09-29T23:14:33.075Z,99086.26
2018-09-29T23:23:19.569Z,99094.19
2018-09-29T23:25:47.035Z,99093.41
2018-09-29T23:28:14.145Z,99091.69
2018-09-29T23:30:40.624Z,99083.55
2018-09-29T23:43:39.336Z,99078.52
2018-09-29T23:46:06.629Z,99077.45
2018-09-29T23:48:33.482Z,99079.81
2018-09-29T23:50:59.962Z,99082.13
2018-09-29T23:53:26.428Z,99080.49
2018-09-29T23:55:53.236Z,99076.34
2018-09-29T23:58:19.761Z,99073.17
